sensor_id;sensor_type;location;lat;lon;timestamp;pressure;altitude;pressure_sealevel;temperature;humidity
51299;BME280;37382;45.192;9.790;2022-11-20T00:01:28;100529.31;;;7.56;100.00
51299;BME280;37382;45.192;9.790;2022-11-20T00:03:57;100538.81;;;7.52;100.00
51299;BME280;37382;45.192;9.790;2022-11-20T00:06:26;100543.06;;;7.46;100.00
51299;BME280;37382;45.192;9.790;2022-11-20T00:08:56;100547.00;;;7.43;100.00
51299;BME280;37382;45.192;9.790;2022-11-20T00:11:26;100546.31;;;7.41;100.00
51299;BME280;37382;45.192;9.790;2022-11-20T00:13:55;100548.16;;;7.26;100.00
51299;BME280;37382;45.192;9.790;2022-11-20T00:16:26;100548.69;;;7.21;100.00
51299;BME280;37382;45.192;9.790;2022-11-20T00:18:54;100547.31;;;7.25;100.00
51299;BME280;37382;45.192;9.790;2022-11-20T00:21:24;100559.28;;;7.31;100.00
51299;BME280;37382;45.192;9.790;2022-11-20T00:23:54;100567.16;;;7.41;100.00
51299;BME280;37382;45.192;9.790;2022-11-20T00:26:23;100560.53;;;7.43;100.00
51299;BME280;37382;45.192;9.790;2022-11-20T00:28:59;100566.16;;;7.19;100.00
51299;BME280;37382;45.192;9.790;2022-11-20T00:31:27;100573.75;;;7.38;100.00
51299;BME280;37382;45.192;9.790;2022-11-20T00:33:55;100574.47;;;7.32;100.00
51299;BME280;37382;45.192;9.790;2022-11-20T00:36:25;100574.78;;;7.37;100.00
51299;BME280;37382;45.192;9.790;2022-11-20T00:38:55;100581.13;;;7.29;100.00
51299;BME280;37382;45.192;9.790;2022-11-20T00:41:23;100584.19;;;7.26;100.00
51299;BME280;37382;45.192;9.790;2022-11-20T00:43:52;100586.44;;;7.15;100.00
51299;BME280;37382;45.192;9.790;2022-11-20T00:46:22;100589.00;;;7.08;100.00
51299;BME280;37382;45.192;9.790;2022-11-20T00:48:50;100584.22;;;7.18;100.00
51299;BME280;37382;45.192;9.790;2022-11-20T00:51:23;100584.22;;;7.18;100.00
51299;BME280;37382;45.192;9.790;2022-11-20T00:53:51;100585.84;;;7.27;100.00
51299;BME280;37382;45.192;9.790;2022-11-20T00:56:19;100582.38;;;7.19;100.00
51299;BME280;37382;45.192;9.790;2022-11-20T00:58:47;100590.22;;;7.05;100.00
51299;BME280;37382;45.192;9.790;2022-11-20T01:01:21;100583.75;;;7.15;100.00
51299;BME280;37382;45.192;9.790;2022-11-20T01:03:54;100594.75;;;7.13;100.00
51299;BME280;37382;45.192;9.790;2022-11-20T01:06:31;100585.28;;;7.09;100.00
51299;BME280;37382;45.192;9.790;2022-11-20T01:09:04;100596.88;;;6.94;100.00
51299;BME280;37382;45.192;9.790;2022-11-20T01:11:35;100597.09;;;6.85;100.00
51299;BME280;37382;45.192;9.790;2022-11-20T01:14:04;100590.63;;;6.94;100.00
51299;BME280;37382;45.192;9.790;2022-11-20T01:16:38;100588.53;;;7.04;100.00
51299;BME280;37382;45.192;9.790;2022-11-20T01:19:10;100586.53;;;6.98;100.00
51299;BME280;37382;45.192;9.790;2022-11-20T01:21:45;100589.91;;;7.00;100.00
51299;BME280;37382;45.192;9.790;2022-11-20T01:24:14;100589.59;;;6.95;100.00
51299;BME280;37382;45.192;9.790;2022-11-20T01:26:43;100594.75;;;6.82;100.00
51299;BME280;37382;45.192;9.790;2022-11-20T01:29:17;100593.16;;;6.56;100.00
51299;BME280;37382;45.192;9.790;2022-11-20T01:31:46;100604.53;;;6.43;100.00
51299;BME280;37382;45.192;9.790;2022-11-20T01:34:16;100602.19;;;6.32;100.00
51299;BME280;37382;45.192;9.790;2022-11-20T01:36:45;100603.72;;;6.43;100.00
51299;BME280;37382;45.192;9.790;2022-11-20T01:39:18;100602.63;;;6.60;100.00
51299;BME280;37382;45.192;9.790;2022-11-20T01:41:48;100598.91;;;6.53;100.00
51299;BME280;37382;45.192;9.790;2022-11-20T01:45:00;100606.59;;;6.33;100.00
51299;BME280;37382;45.192;9.790;2022-11-20T01:47:40;100610.03;;;6.18;100.00
51299;BME280;37382;45.192;9.790;2022-11-20T01:50:14;100611.19;;;6.16;100.00
51299;BME280;37382;45.192;9.790;2022-11-20T01:55:19;100606.34;;;6.03;100.00
51299;BME280;37382;45.192;9.790;2022-11-20T01:57:48;100601.75;;;6.12;100.00
51299;BME280;37382;45.192;9.790;2022-11-20T02:00:18;100596.38;;;6.03;100.00
51299;BME280;37382;45.192;9.790;2022-11-20T02:02:54;100607.84;;;5.97;100.00
51299;BME280;37382;45.192;9.790;2022-11-20T02:05:40;100610.88;;;6.02;100.00
51299;BME280;37382;45.192;9.790;2022-11-20T02:08:11;100608.16;;;5.94;100.00
51299;BME280;37382;45.192;9.790;2022-11-20T02:10:39;100608.34;;;5.93;100.00
51299;BME280;37382;45.192;9.790;2022-11-20T02:13:06;100614.75;;;5.50;100.00
51299;BME280;37382;45.192;9.790;2022-11-20T02:15:53;100618.59;;;5.15;100.00
51299;BME280;37382;45.192;9.790;2022-11-20T02:18:21;100623.16;;;5.23;100.00
51299;BME280;37382;45.192;9.790;2022-11-20T02:21:05;100619.78;;;5.29;100.00
51299;BME280;37382;45.192;9.790;2022-11-20T02:24:04;100617.63;;;5.41;100.00
51299;BME280;37382;45.192;9.790;2022-11-20T02:26:41;100620.66;;;5.38;100.00
51299;BME280;37382;45.192;9.790;2022-11-20T02:29:10;100623.69;;;5.51;100.00
51299;BME280;37382;45.192;9.790;2022-11-20T02:31:39;100621.00;;;5.76;100.00
51299;BME280;37382;45.192;9.790;2022-11-20T02:34:08;100618.31;;;5.59;100.00
51299;BME280;37382;45.192;9.790;2022-11-20T02:36:36;100618.31;;;5.59;100.00
51299;BME280;37382;45.192;9.790;2022-11-20T02:39:06;100614.75;;;5.42;100.00
51299;BME280;37382;45.192;9.790;2022-11-20T02:41:37;100618.63;;;5.31;100.00
51299;BME280;37382;45.192;9.790;2022-11-20T02:44:05;100619.75;;;5.21;100.00
51299;BME280;37382;45.192;9.790;2022-11-20T02:46:33;100616.56;;;5.17;100.00
51299;BME280;37382;45.192;9.790;2022-11-20T02:49:02;100616.91;;;5.22;100.00
51299;BME280;37382;45.192;9.790;2022-11-20T02:51:30;100607.81;;;5.23;100.00
51299;BME280;37382;45.192;9.790;2022-11-20T02:53:58;100615.44;;;5.36;100.00
51299;BME280;37382;45.192;9.790;2022-11-20T02:56:25;100611.38;;;5.57;100.00
51299;BME280;37382;45.192;9.790;2022-11-20T02:58:53;100606.50;;;5.68;100.00
51299;BME280;37382;45.192;9.790;2022-11-20T03:01:21;100614.94;;;5.82;100.00
51299;BME280;37382;45.192;9.790;2022-11-20T03:03:48;100610.03;;;5.85;100.00
51299;BME280;37382;45.192;9.790;2022-11-20T03:06:16;100612.41;;;5.80;100.00
51299;BME280;37382;45.192;9.790;2022-11-20T03:08:44;100613.06;;;5.41;100.00
51299;BME280;37382;45.192;9.790;2022-11-20T03:11:11;100619.13;;;5.60;100.00
51299;BME280;37382;45.192;9.790;2022-11-20T03:13:39;100623.53;;;5.61;100.00
51299;BME280;37382;45.192;9.790;2022-11-20T03:16:08;100619.28;;;5.33;100.00
51299;BME280;37382;45.192;9.790;2022-11-20T03:18:37;100617.63;;;5.41;100.00
51299;BME280;37382;45.192;9.790;2022-11-20T03:21:04;100623.31;;;5.21;100.00
51299;BME280;37382;45.192;9.790;2022-11-20T03:23:32;100615.91;;;5.23;100.00
51299;BME280;37382;45.192;9.790;2022-11-20T03:26:15;100620.91;;;4.93;100.00
51299;BME280;37382;45.192;9.790;2022-11-20T03:28:48;100621.84;;;4.76;100.00
51299;BME280;37382;45.192;9.790;2022-11-20T03:31:18;100626.81;;;4.62;100.00
51299;BME280;37382;45.192;9.790;2022-11-20T03:33:46;100627.97;;;4.52;100.00
51299;BME280;37382;45.192;9.790;2022-11-20T03:36:15;100636.22;;;4.50;100.00
51299;BME280;37382;45.192;9.790;2022-11-20T03:38:44;100625.00;;;4.63;100.00
51299;BME280;37382;45.192;9.790;2022-11-20T03:41:26;100621.06;;;4.92;100.00
51299;BME280;37382;45.192;9.790;2022-11-20T03:44:00;100624.06;;;4.89;100.00
51299;BME280;37382;45.192;9.790;2022-11-20T03:46:28;100621.59;;;5.04;100.00
51299;BME280;37382;45.192;9.790;2022-11-20T03:48:57;100623.94;;;4.98;100.00
51299;BME280;37382;45.192;9.790;2022-11-20T03:51:26;100630.00;;;4.92;100.00
51299;BME280;37382;45.192;9.790;2022-11-20T03:53:57;100628.88;;;4.69;100.00
51299;BME280;37382;45.192;9.790;2022-11-20T03:56:30;100631.22;;;4.63;100.00
51299;BME280;37382;45.192;9.790;2022-11-20T03:58:57;100640.41;;;4.87;100.00
51299;BME280;37382;45.192;9.790;2022-11-20T04:01:28;100636.25;;;5.09;100.00
51299;BME280;37382;45.192;9.790;2022-11-20T04:03:56;100642.50;;;5.10;100.00
51299;BME280;37382;45.192;9.790;2022-11-20T04:06:27;100638.78;;;5.03;100.00
51299;BME280;37382;45.192;9.790;2022-11-20T04:08:55;100647.88;;;5.10;100.00
51299;BME280;37382;45.192;9.790;2022-11-20T04:11:25;100640.63;;;5.02;100.00
51299;BME280;37382;45.192;9.790;2022-11-20T04:13:58;100642.75;;;4.82;100.00
51299;BME280;37382;45.192;9.790;2022-11-20T04:16:29;100652.28;;;4.68;100.00
51299;BME280;37382;45.192;9.790;2022-11-20T04:19:01;100648.53;;;4.61;100.00
51299;BME280;37382;45.192;9.790;2022-11-20T04:21:29;100644.56;;;4.39;100.00
51299;BME280;37382;45.192;9.790;2022-11-20T04:23:57;100650.66;;;4.15;100.00
51299;BME280;37382;45.192;9.790;2022-11-20T04:26:26;100649.63;;;3.89;100.00
51299;BME280;37382;45.192;9.790;2022-11-20T04:28:55;100652.09;;;3.65;100.00
51299;BME280;37382;45.192;9.790;2022-11-20T04:31:26;100654.34;;;3.69;100.00
51299;BME280;37382;45.192;9.790;2022-11-20T04:33:54;100660.31;;;3.81;100.00
51299;BME280;37382;45.192;9.790;2022-11-20T04:36:24;100650.94;;;3.85;100.00
51299;BME280;37382;45.192;9.790;2022-11-20T04:38:56;100653.00;;;3.91;100.00
51299;BME280;37382;45.192;9.790;2022-11-20T04:41:29;100652.22;;;3.99;100.00
51299;BME280;37382;45.192;9.790;2022-11-20T04:43:59;100652.53;;;3.96;100.00
51299;BME280;37382;45.192;9.790;2022-11-20T04:46:50;100659.94;;;3.76;100.00
51299;BME280;37382;45.192;9.790;2022-11-20T04:49:17;100661.41;;;3.70;100.00
51299;BME280;37382;45.192;9.790;2022-11-20T04:51:44;100675.56;;;3.72;100.00
51299;BME280;37382;45.192;9.790;2022-11-20T04:54:12;100673.78;;;3.81;100.00
51299;BME280;37382;45.192;9.790;2022-11-20T04:56:40;100666.25;;;3.67;100.00
51299;BME280;37382;45.192;9.790;2022-11-20T04:59:07;100665.41;;;3.84;100.00
51299;BME280;37382;45.192;9.790;2022-11-20T05:01:34;100667.94;;;3.68;100.00
51299;BME280;37382;45.192;9.790;2022-11-20T05:04:02;100677.25;;;3.55;100.00
51299;BME280;37382;45.192;9.790;2022-11-20T05:06:30;100666.47;;;3.73;100.00
51299;BME280;37382;45.192;9.790;2022-11-20T05:08:57;100681.09;;;3.71;100.00
51299;BME280;37382;45.192;9.790;2022-11-20T05:11:24;100677.31;;;3.64;100.00
51299;BME280;37382;45.192;9.790;2022-11-20T05:13:52;100678.53;;;3.69;100.00
51299;BME280;37382;45.192;9.790;2022-11-20T05:16:22;100669.66;;;3.69;100.00
51299;BME280;37382;45.192;9.790;2022-11-20T05:18:51;100680.41;;;3.87;100.00
51299;BME280;37382;45.192;9.790;2022-11-20T05:21:20;100683.00;;;3.97;100.00
51299;BME280;37382;45.192;9.790;2022-11-20T05:23:47;100684.81;;;4.40;100.00
51299;BME280;37382;45.192;9.790;2022-11-20T05:26:17;100689.44;;;4.56;100.00
51299;BME280;37382;45.192;9.790;2022-11-20T05:28:45;100687.47;;;4.67;100.00
51299;BME280;37382;45.192;9.790;2022-11-20T05:31:19;100683.50;;;4.79;100.00
51299;BME280;37382;45.192;9.790;2022-11-20T05:33:56;100692.41;;;4.45;100.00
51299;BME280;37382;45.192;9.790;2022-11-20T05:36:24;100692.66;;;4.34;100.00
51299;BME280;37382;45.192;9.790;2022-11-20T05:38:52;100692.19;;;4.38;100.00
51299;BME280;37382;45.192;9.790;2022-11-20T05:41:27;100701.91;;;4.57;100.00
51299;BME280;37382;45.192;9.790;2022-11-20T05:43:55;100706.34;;;4.67;100.00
51299;BME280;37382;45.192;9.790;2022-11-20T05:46:23;100710.97;;;4.82;100.00
51299;BME280;37382;45.192;9.790;2022-11-20T05:48:56;100710.09;;;4.74;100.00
51299;BME280;37382;45.192;9.790;2022-11-20T05:51:24;100712.72;;;4.66;100.00
51299;BME280;37382;45.192;9.790;2022-11-20T05:53:52;100717.84;;;4.77;100.00
51299;BME280;37382;45.192;9.790;2022-11-20T05:56:21;100723.66;;;4.64;100.00
51299;BME280;37382;45.192;9.790;2022-11-20T05:58:49;100721.13;;;4.62;100.00
51299;BME280;37382;45.192;9.790;2022-11-20T06:01:19;100722.25;;;4.52;100.00
51299;BME280;37382;45.192;9.790;2022-11-20T06:03:48;100730.59;;;4.67;100.00
51299;BME280;37382;45.192;9.790;2022-11-20T06:06:18;100729.94;;;4.73;100.00
51299;BME280;37382;45.192;9.790;2022-11-20T06:08:46;100734.13;;;4.67;100.00
51299;BME280;37382;45.192;9.790;2022-11-20T06:11:14;100739.84;;;4.64;100.00
51299;BME280;37382;45.192;9.790;2022-11-20T06:13:42;100741.84;;;4.62;100.00
51299;BME280;37382;45.192;9.790;2022-11-20T06:16:12;100740.94;;;4.53;100.00
51299;BME280;37382;45.192;9.790;2022-11-20T06:18:40;100750.94;;;4.61;100.00
51299;BME280;37382;45.192;9.790;2022-11-20T06:21:11;100751.00;;;4.69;100.00
51299;BME280;37382;45.192;9.790;2022-11-20T06:23:38;100756.16;;;4.62;100.00
51299;BME280;37382;45.192;9.790;2022-11-20T06:26:08;100766.69;;;4.74;100.00
51299;BME280;37382;45.192;9.790;2022-11-20T06:28:36;100768.63;;;4.63;100.00
51299;BME280;37382;45.192;9.790;2022-11-20T06:31:05;100777.03;;;4.87;100.00
51299;BME280;37382;45.192;9.790;2022-11-20T06:33:33;100768.00;;;4.70;100.00
51299;BME280;37382;45.192;9.790;2022-11-20T06:36:01;100770.03;;;4.68;100.00
51299;BME280;37382;45.192;9.790;2022-11-20T06:38:37;100772.06;;;4.74;100.00
51299;BME280;37382;45.192;9.790;2022-11-20T06:41:05;100775.50;;;4.58;100.00
51299;BME280;37382;45.192;9.790;2022-11-20T06:43:33;100774.69;;;4.66;100.00
51299;BME280;37382;45.192;9.790;2022-11-20T06:46:01;100781.59;;;4.60;100.00
51299;BME280;37382;45.192;9.790;2022-11-20T06:48:29;100786.34;;;4.66;100.00
51299;BME280;37382;45.192;9.790;2022-11-20T06:50:57;100782.47;;;4.69;100.00
51299;BME280;37382;45.192;9.790;2022-11-20T06:53:24;100792.25;;;4.70;100.00
51299;BME280;37382;45.192;9.790;2022-11-20T06:55:52;100790.25;;;4.72;100.00
51299;BME280;37382;45.192;9.790;2022-11-20T06:58:19;100794.31;;;4.76;100.00
51299;BME280;37382;45.192;9.790;2022-11-20T07:00:47;100788.88;;;4.68;100.00
51299;BME280;37382;45.192;9.790;2022-11-20T07:03:16;100804.25;;;4.75;100.00
51299;BME280;37382;45.192;9.790;2022-11-20T07:05:43;100795.69;;;4.54;100.00
51299;BME280;37382;45.192;9.790;2022-11-20T07:08:12;100798.94;;;4.66;100.00
51299;BME280;37382;45.192;9.790;2022-11-20T07:10:39;100805.72;;;4.70;100.00
51299;BME280;37382;45.192;9.790;2022-11-20T07:13:08;100798.59;;;4.87;100.00
51299;BME280;37382;45.192;9.790;2022-11-20T07:15:36;100807.59;;;4.69;100.00
51299;BME280;37382;45.192;9.790;2022-11-20T07:18:03;100808.97;;;4.99;100.00
51299;BME280;37382;45.192;9.790;2022-11-20T07:20:31;100819.94;;;4.80;100.00
51299;BME280;37382;45.192;9.790;2022-11-20T07:22:59;100822.38;;;4.91;100.00
51299;BME280;37382;45.192;9.790;2022-11-20T07:25:27;100828.19;;;4.78;100.00
51299;BME280;37382;45.192;9.790;2022-11-20T07:27:59;100832.75;;;5.04;100.00
51299;BME280;37382;45.192;9.790;2022-11-20T07:30:28;100829.72;;;5.07;100.00
51299;BME280;37382;45.192;9.790;2022-11-20T07:32:56;100832.19;;;5.01;100.00
51299;BME280;37382;45.192;9.790;2022-11-20T07:35:24;100842.91;;;5.10;100.00
51299;BME280;37382;45.192;9.790;2022-11-20T07:37:52;100844.09;;;5.16;100.00
51299;BME280;37382;45.192;9.790;2022-11-20T07:40:20;100842.19;;;5.34;100.00
51299;BME280;37382;45.192;9.790;2022-11-20T07:42:51;100843.66;;;5.29;100.00
51299;BME280;37382;45.192;9.790;2022-11-20T07:45:20;100836.66;;;5.44;100.00
51299;BME280;37382;45.192;9.790;2022-11-20T07:47:49;100845.09;;;5.49;100.00
51299;BME280;37382;45.192;9.790;2022-11-20T07:50:17;100845.28;;;5.13;100.00
51299;BME280;37382;45.192;9.790;2022-11-20T07:52:45;100844.03;;;5.34;100.00
51299;BME280;37382;45.192;9.790;2022-11-20T07:55:12;100841.16;;;5.35;100.00
51299;BME280;37382;45.192;9.790;2022-11-20T07:57:40;100842.22;;;5.43;100.00
51299;BME280;37382;45.192;9.790;2022-11-20T08:00:11;100853.09;;;4.98;100.00
51299;BME280;37382;45.192;9.790;2022-11-20T08:02:40;100852.47;;;5.05;100.00
51299;BME280;37382;45.192;9.790;2022-11-20T08:05:09;100856.09;;;4.95;100.00
51299;BME280;37382;45.192;9.790;2022-11-20T08:07:38;100860.47;;;4.70;100.00
51299;BME280;37382;45.192;9.790;2022-11-20T08:10:07;100868.72;;;4.51;100.00
51299;BME280;37382;45.192;9.790;2022-11-20T08:12:35;100872.38;;;4.86;100.00
51299;BME280;37382;45.192;9.790;2022-11-20T08:15:23;100868.13;;;5.01;100.00
51299;BME280;37382;45.192;9.790;2022-11-20T08:17:50;100869.00;;;4.84;100.00
51299;BME280;37382;45.192;9.790;2022-11-20T08:20:38;100873.44;;;5.19;100.00
51299;BME280;37382;45.192;9.790;2022-11-20T08:23:07;100877.03;;;5.28;100.00
51299;BME280;37382;45.192;9.790;2022-11-20T08:25:36;100883.19;;;5.12;100.00
51299;BME280;37382;45.192;9.790;2022-11-20T08:28:06;100883.28;;;5.02;100.00
51299;BME280;37382;45.192;9.790;2022-11-20T08:30:46;100880.00;;;5.51;100.00
51299;BME280;37382;45.192;9.790;2022-11-20T08:33:13;100883.91;;;5.48;100.00
51299;BME280;37382;45.192;9.790;2022-11-20T08:35:41;100889.78;;;5.17;100.00
51299;BME280;37382;45.192;9.790;2022-11-20T08:38:10;100889.94;;;5.16;100.00
51299;BME280;37382;45.192;9.790;2022-11-20T08:40:37;100892.09;;;5.12;100.00
51299;BME280;37382;45.192;9.790;2022-11-20T08:43:05;100901.97;;;5.04;100.00
51299;BME280;37382;45.192;9.790;2022-11-20T08:45:33;100900.09;;;5.22;100.00
51299;BME280;37382;45.192;9.790;2022-11-20T08:48:03;100899.78;;;5.60;100.00
51299;BME280;37382;45.192;9.790;2022-11-20T08:50:31;100896.59;;;5.56;100.00
51299;BME280;37382;45.192;9.790;2022-11-20T08:53:04;100897.06;;;5.51;100.00
51299;BME280;37382;45.192;9.790;2022-11-20T08:55:32;100902.81;;;5.91;100.00
51299;BME280;37382;45.192;9.790;2022-11-20T08:58:03;100909.50;;;5.79;100.00
51299;BME280;37382;45.192;9.790;2022-11-20T09:00:32;100903.41;;;6.03;100.00
51299;BME280;37382;45.192;9.790;2022-11-20T09:03:00;100903.41;;;6.03;100.00
51299;BME280;37382;45.192;9.790;2022-11-20T09:05:28;100906.34;;;6.43;100.00
51299;BME280;37382;45.192;9.790;2022-11-20T09:07:57;100905.59;;;6.08;100.00
51299;BME280;37382;45.192;9.790;2022-11-20T09:10:26;100901.00;;;6.00;100.00
51299;BME280;37382;45.192;9.790;2022-11-20T09:12:54;100908.31;;;6.16;100.00
51299;BME280;37382;45.192;9.790;2022-11-20T09:15:25;100905.59;;;6.08;100.00
51299;BME280;37382;45.192;9.790;2022-11-20T09:17:56;100899.03;;;6.18;100.00
51299;BME280;37382;45.192;9.790;2022-11-20T09:20:25;100901.59;;;6.28;100.00
51299;BME280;37382;45.192;9.790;2022-11-20T09:22:54;100894.72;;;6.50;100.00
51299;BME280;37382;45.192;9.790;2022-11-20T09:25:22;100907.88;;;6.70;100.00
51299;BME280;37382;45.192;9.790;2022-11-20T09:27:56;100905.19;;;6.94;100.00
51299;BME280;37382;45.192;9.790;2022-11-20T09:30:25;100904.50;;;6.84;100.00
51299;BME280;37382;45.192;9.790;2022-11-20T09:32:53;100906.72;;;6.64;100.00
51299;BME280;37382;45.192;9.790;2022-11-20T09:35:20;100900.28;;;6.82;100.00
51299;BME280;37382;45.192;9.790;2022-11-20T09:37:48;100900.94;;;7.00;100.00
51299;BME280;37382;45.192;9.790;2022-11-20T09:40:20;100907.06;;;7.02;100.00
51299;BME280;37382;45.192;9.790;2022-11-20T09:43:01;100905.69;;;7.15;100.00
51299;BME280;37382;45.192;9.790;2022-11-20T09:51:23;100898.00;;;7.51;100.00
51299;BME280;37382;45.192;9.790;2022-11-20T09:56:33;100885.28;;;7.60;100.00
51299;BME280;37382;45.192;9.790;2022-11-20T09:59:04;100893.44;;;7.43;100.00
51299;BME280;37382;45.192;9.790;2022-11-20T10:01:35;100888.06;;;7.83;100.00
51299;BME280;37382;45.192;9.790;2022-11-20T10:04:08;100873.56;;;8.07;100.00
51299;BME280;37382;45.192;9.790;2022-11-20T10:22:26;100855.72;;;9.20;100.00
51299;BME280;37382;45.192;9.790;2022-11-20T10:25:26;100863.59;;;8.92;100.00
51299;BME280;37382;45.192;9.790;2022-11-20T10:28:10;100866.75;;;9.19;100.00
51299;BME280;37382;45.192;9.790;2022-11-20T10:30:43;100857.75;;;9.63;100.00
51299;BME280;37382;45.192;9.790;2022-11-20T10:33:22;100863.75;;;9.29;100.00
51299;BME280;37382;45.192;9.790;2022-11-20T10:38:29;100853.09;;;9.57;100.00
51299;BME280;37382;45.192;9.790;2022-11-20T10:40:59;100846.00;;;9.41;100.00
51299;BME280;37382;45.192;9.790;2022-11-20T10:43:50;100855.13;;;9.10;100.00
51299;BME280;37382;45.192;9.790;2022-11-20T10:46:20;100846.16;;;9.24;100.00
51299;BME280;37382;45.192;9.790;2022-11-20T10:48:51;100841.38;;;9.26;100.00
51299;BME280;37382;45.192;9.790;2022-11-20T10:51:37;100837.75;;;9.49;100.00
51299;BME280;37382;45.192;9.790;2022-11-20T10:57:44;100835.13;;;9.41;100.00
51299;BME280;37382;45.192;9.790;2022-11-20T11:00:14;100836.22;;;9.61;100.00
51299;BME280;37382;45.192;9.790;2022-11-20T11:02:48;100838.22;;;9.89;100.00
51299;BME280;37382;45.192;9.790;2022-11-20T11:05:41;100834.41;;;9.84;100.00
51299;BME280;37382;45.192;9.790;2022-11-20T11:08:17;100833.38;;;10.43;100.00
51299;BME280;37382;45.192;9.790;2022-11-20T11:10:53;100827.81;;;10.29;100.00
51299;BME280;37382;45.192;9.790;2022-11-20T11:13:26;100828.41;;;10.25;100.00
51299;BME280;37382;45.192;9.790;2022-11-20T11:15:54;100826.22;;;10.35;100.00
51299;BME280;37382;45.192;9.790;2022-11-20T11:18:27;100829.88;;;10.49;100.00
51299;BME280;37382;45.192;9.790;2022-11-20T11:20:56;100824.53;;;10.34;100.00
51299;BME280;37382;45.192;9.790;2022-11-20T11:23:32;100823.00;;;10.31;100.00
51299;BME280;37382;45.192;9.790;2022-11-20T11:26:02;100818.25;;;10.83;100.00
51299;BME280;37382;45.192;9.790;2022-11-20T11:28:31;100816.53;;;11.04;100.00
51299;BME280;37382;45.192;9.790;2022-11-20T11:30:59;100813.16;;;11.02;100.00
51299;BME280;37382;45.192;9.790;2022-11-20T11:33:30;100813.66;;;10.84;100.00
51299;BME280;37382;45.192;9.790;2022-11-20T11:36:17;100815.00;;;10.95;100.00
51299;BME280;37382;45.192;9.790;2022-11-20T11:38:51;100807.53;;;10.75;100.00
51299;BME280;37382;45.192;9.790;2022-11-20T11:41:22;100811.69;;;10.99;100.00
51299;BME280;37382;45.192;9.790;2022-11-20T11:43:52;100795.41;;;11.13;100.00
51299;BME280;37382;45.192;9.790;2022-11-20T11:46:44;100802.38;;;11.22;100.00
51299;BME280;37382;45.192;9.790;2022-11-20T11:49:18;100795.31;;;11.28;100.00
51299;BME280;37382;45.192;9.790;2022-11-20T11:52:01;100794.91;;;10.96;100.00
51299;BME280;37382;45.192;9.790;2022-11-20T12:00:20;100788.13;;;10.85;100.00
51299;BME280;37382;45.192;9.790;2022-11-20T12:03:16;100784.81;;;10.90;100.00
51299;BME280;37382;45.192;9.790;2022-11-20T12:05:49;100785.44;;;11.27;100.00
51299;BME280;37382;45.192;9.790;2022-11-20T12:08:32;100790.75;;;11.42;100.00
51299;BME280;37382;45.192;9.790;2022-11-20T12:11:05;100791.25;;;10.82;100.00
51299;BME280;37382;45.192;9.790;2022-11-20T12:16:02;100768.47;;;11.18;100.00
51299;BME280;37382;45.192;9.790;2022-11-20T12:18:30;100769.88;;;11.07;100.00
51299;BME280;37382;45.192;9.790;2022-11-20T12:21:20;100773.94;;;11.25;100.00
51299;BME280;37382;45.192;9.790;2022-11-20T12:37:48;100760.09;;;11.81;100.00
51299;BME280;37382;45.192;9.790;2022-11-20T12:43:20;100750.59;;;12.52;100.00
51299;BME280;37382;45.192;9.790;2022-11-20T12:51:39;100745.09;;;12.05;100.00
51299;BME280;37382;45.192;9.790;2022-11-20T12:55:07;100733.75;;;11.95;100.00
51299;BME280;37382;45.192;9.790;2022-11-20T13:00:20;100722.69;;;12.37;100.00
51299;BME280;37382;45.192;9.790;2022-11-20T13:03:09;100730.41;;;12.00;100.00
51299;BME280;37382;45.192;9.790;2022-11-20T13:05:55;100725.81;;;12.20;100.00
51299;BME280;37382;45.192;9.790;2022-11-20T13:08:37;100725.78;;;11.93;100.00
51299;BME280;37382;45.192;9.790;2022-11-20T13:11:14;100719.50;;;12.13;100.00
51299;BME280;37382;45.192;9.790;2022-11-20T13:16:33;100709.66;;;12.32;100.00
51299;BME280;37382;45.192;9.790;2022-11-20T13:19:04;100712.38;;;12.19;100.00
51299;BME280;37382;45.192;9.790;2022-11-20T13:21:41;100711.97;;;12.35;100.00
51299;BME280;37382;45.192;9.790;2022-11-20T13:29:44;100690.56;;;12.05;100.00
51299;BME280;37382;45.192;9.790;2022-11-20T13:32:20;100696.78;;;11.79;100.00
51299;BME280;37382;45.192;9.790;2022-11-20T13:34:56;100681.94;;;11.95;100.00
51299;BME280;37382;45.192;9.790;2022-11-20T13:37:33;100684.44;;;11.83;100.00
51299;BME280;37382;45.192;9.790;2022-11-20T13:45:31;100687.75;;;11.72;100.00
51299;BME280;37382;45.192;9.790;2022-11-20T13:48:04;100672.69;;;11.76;100.00
51299;BME280;37382;45.192;9.790;2022-11-20T13:50:39;100685.94;;;11.92;100.00
51299;BME280;37382;45.192;9.790;2022-11-20T13:53:25;100682.94;;;11.87;100.00
51299;BME280;37382;45.192;9.790;2022-11-20T13:56:06;100678.34;;;11.74;100.00
51299;BME280;37382;45.192;9.790;2022-11-20T14:01:45;100684.81;;;11.73;100.00
51299;BME280;37382;45.192;9.790;2022-11-20T14:04:18;100680.66;;;11.78;100.00
51299;BME280;37382;45.192;9.790;2022-11-20T14:06:48;100685.28;;;11.84;100.00
51299;BME280;37382;45.192;9.790;2022-11-20T14:09:54;100682.25;;;11.52;100.00
51299;BME280;37382;45.192;9.790;2022-11-20T14:12:28;100677.28;;;11.62;100.00
51299;BME280;37382;45.192;9.790;2022-11-20T14:14:55;100682.06;;;11.53;100.00
51299;BME280;37382;45.192;9.790;2022-11-20T14:20:05;100669.88;;;11.43;100.00
51299;BME280;37382;45.192;9.790;2022-11-20T14:22:33;100661.34;;;11.66;100.00
51299;BME280;37382;45.192;9.790;2022-11-20T14:27:29;100671.16;;;11.47;100.00
51299;BME280;37382;45.192;9.790;2022-11-20T14:30:00;100666.53;;;11.47;100.00
51299;BME280;37382;45.192;9.790;2022-11-20T14:32:30;100662.53;;;11.36;100.00
51299;BME280;37382;45.192;9.790;2022-11-20T14:35:09;100674.91;;;11.39;100.00
51299;BME280;37382;45.192;9.790;2022-11-20T14:37:39;100675.75;;;11.46;100.00
51299;BME280;37382;45.192;9.790;2022-11-20T14:40:40;100669.47;;;11.46;100.00